createdAt,value
2023-03-10T00:01:24.060Z,8.43
2023-03-10T00:03:52.680Z,8.22
2023-03-10T00:06:22.526Z,8.22
2023-03-10T00:08:50.951Z,8.20
2023-03-10T00:11:19.021Z,8.18
2023-03-10T00:13:48.141Z,8.24
2023-03-10T00:16:22.475Z,8.21
2023-03-10T00:18:54.018Z,8.24
2023-03-10T00:21:25.847Z,8.20
2023-03-10T00:23:56.943Z,8.39
2023-03-10T00:26:28.099Z,8.37
2023-03-10T00:28:56.120Z,8.22
2023-03-10T00:31:26.679Z,8.26
2023-03-10T00:33:56.375Z,8.24
2023-03-10T00:36:28.432Z,8.21
2023-03-10T00:38:57.906Z,8.26
2023-03-10T00:41:33.613Z,8.12
2023-03-10T00:44:01.655Z,8.02
2023-03-10T00:46:30.206Z,7.99
2023-03-10T00:48:57.793Z,8.09
2023-03-10T00:51:26.915Z,8.21
2023-03-10T00:53:57.058Z,8.23
2023-03-10T00:56:25.814Z,8.47
2023-03-10T00:58:56.372Z,8.63
2023-03-10T01:01:27.414Z,8.75
2023-03-10T01:03:57.046Z,8.80
2023-03-10T01:06:25.009Z,8.80
2023-03-10T01:08:54.841Z,8.97
2023-03-10T01:11:26.490Z,8.76
2023-03-10T01:14:00.698Z,8.66
2023-03-10T01:16:28.946Z,8.65
2023-03-10T01:18:57.221Z,8.62
2023-03-10T01:21:30.350Z,8.59
2023-03-10T01:23:58.082Z,8.67
2023-03-10T01:26:25.583Z,8.52
2023-03-10T01:28:53.285Z,8.56
2023-03-10T01:31:21.515Z,8.43
2023-03-10T01:33:49.846Z,8.56
2023-03-10T01:36:20.314Z,8.55
2023-03-10T01:38:48.985Z,8.67
2023-03-10T01:41:17.600Z,8.61
2023-03-10T01:43:47.647Z,8.66
2023-03-10T01:46:37.404Z,8.90
2023-03-10T01:49:11.655Z,8.90
2023-03-10T01:51:43.206Z,8.94
2023-03-10T01:54:17.096Z,9.03
2023-03-10T01:56:47.341Z,9.10
2023-03-10T01:59:15.032Z,9.16
2023-03-10T02:01:42.922Z,9.21
2023-03-10T02:04:35.424Z,9.07
2023-03-10T02:07:06.411Z,9.14
2023-03-10T02:09:39.122Z,9.24
2023-03-10T02:12:08.288Z,9.31
2023-03-10T02:14:41.283Z,9.10
2023-03-10T02:17:13.888Z,9.22
2023-03-10T02:20:13.184Z,9.17
2023-03-10T02:22:41.749Z,9.02
2023-03-10T02:25:33.151Z,9.31
2023-03-10T02:28:00.744Z,9.02
2023-03-10T02:30:39.143Z,9.31
2023-03-10T02:33:12.120Z,9.29
2023-03-10T02:35:40.125Z,9.21
2023-03-10T02:38:07.575Z,9.30
2023-03-10T02:40:40.379Z,9.46
2023-03-10T02:43:14.318Z,9.31
2023-03-10T02:45:44.600Z,9.27
2023-03-10T02:48:34.218Z,9.38
2023-03-10T02:51:05.856Z,9.26
2023-03-10T02:53:33.635Z,9.16
2023-03-10T02:56:01.177Z,9.29
2023-03-10T02:58:31.167Z,9.17
2023-03-10T03:00:59.322Z,9.12
2023-03-10T03:03:27.184Z,8.96
2023-03-10T03:05:54.613Z,8.95
2023-03-10T03:08:30.106Z,8.81
2023-03-10T03:10:57.674Z,8.68
2023-03-10T03:13:25.395Z,8.63
2023-03-10T03:15:52.767Z,8.78
2023-03-10T03:18:20.589Z,8.68
2023-03-10T03:20:48.060Z,8.62
2023-03-10T03:23:17.419Z,8.72
2023-03-10T03:25:44.813Z,8.52
2023-03-10T03:28:12.710Z,8.36
2023-03-10T03:30:40.739Z,8.57
2023-03-10T03:33:08.690Z,8.46
2023-03-10T03:35:38.248Z,8.42
2023-03-10T03:38:06.642Z,8.31
2023-03-10T03:40:36.754Z,8.19
2023-03-10T03:43:05.291Z,8.23
2023-03-10T03:45:38.128Z,8.22
2023-03-10T03:48:05.729Z,8.29
2023-03-10T03:50:33.243Z,8.17
2023-03-10T03:53:00.641Z,8.24
2023-03-10T03:55:29.009Z,8.16
2023-03-10T03:58:00.740Z,8.22
2023-03-10T04:00:28.166Z,8.46
2023-03-10T04:02:56.414Z,8.45
2023-03-10T04:05:26.610Z,8.31
2023-03-10T04:07:55.233Z,8.37
2023-03-10T04:10:28.486Z,8.24
2023-03-10T04:12:57.160Z,8.36
2023-03-10T04:15:24.808Z,8.24
2023-03-10T04:17:53.958Z,8.28
2023-03-10T04:20:21.364Z,8.21
2023-03-10T04:22:49.334Z,8.24
2023-03-10T04:25:16.892Z,8.37
2023-03-10T04:27:44.481Z,8.37
2023-03-10T04:30:14.348Z,8.41
2023-03-10T04:32:42.780Z,8.36
2023-03-10T04:35:13.438Z,8.37
2023-03-10T04:37:41.231Z,8.26
2023-03-10T04:40:13.133Z,8.11
2023-03-10T04:42:40.666Z,8.22
2023-03-10T04:45:08.784Z,8.37
2023-03-10T04:47:38.074Z,8.19
2023-03-10T04:50:07.229Z,8.26
2023-03-10T04:52:34.865Z,8.39
2023-03-10T04:55:02.382Z,8.17
2023-03-10T04:57:30.178Z,8.33
2023-03-10T04:59:57.677Z,8.33
2023-03-10T05:02:25.352Z,8.38
2023-03-10T05:04:53.188Z,8.47
2023-03-10T05:07:21.524Z,8.44
2023-03-10T05:09:49.642Z,8.33
2023-03-10T05:12:17.151Z,8.31
2023-03-10T05:14:44.895Z,8.33
2023-03-10T05:17:12.648Z,8.42
2023-03-10T05:19:40.453Z,8.38
2023-03-10T05:22:11.654Z,8.45
2023-03-10T05:24:43.000Z,8.39
2023-03-10T05:27:10.674Z,8.42
2023-03-10T05:29:39.307Z,8.43
2023-03-10T05:32:07.693Z,8.39
2023-03-10T05:34:38.887Z,8.52
2023-03-10T05:37:06.405Z,8.49
2023-03-10T05:39:34.258Z,8.60
2023-03-10T05:42:01.756Z,8.61
2023-03-10T05:44:29.479Z,8.55
2023-03-10T05:47:02.262Z,8.69
2023-03-10T05:49:30.895Z,8.81
2023-03-10T05:51:58.941Z,9.02
2023-03-10T05:54:26.800Z,9.22
2023-03-10T05:56:54.293Z,9.43
2023-03-10T05:59:21.785Z,9.57
2023-03-10T06:01:49.181Z,9.59
2023-03-10T06:04:16.631Z,9.85
2023-03-10T06:06:44.192Z,9.76
2023-03-10T06:09:12.284Z,9.78
2023-03-10T06:11:42.173Z,10.10
2023-03-10T06:14:10.223Z,10.15
2023-03-10T06:16:40.239Z,10.00
2023-03-10T06:19:11.216Z,10.24
2023-03-10T06:21:38.634Z,10.38
2023-03-10T06:24:06.159Z,10.45
2023-03-10T06:26:34.780Z,10.53
2023-03-10T06:29:02.242Z,10.75
2023-03-10T06:31:34.660Z,10.51
2023-03-10T06:34:04.394Z,10.61
2023-03-10T06:36:32.721Z,10.72
2023-03-10T06:39:00.249Z,10.88
2023-03-10T06:41:28.248Z,11.04
2023-03-10T06:43:55.680Z,11.37
2023-03-10T06:46:25.617Z,11.68
2023-03-10T06:48:53.739Z,11.94
2023-03-10T06:51:22.452Z,12.21
2023-03-10T06:53:51.867Z,12.29
2023-03-10T06:56:21.968Z,12.45
2023-03-10T06:58:49.768Z,12.61
2023-03-10T07:01:24.484Z,12.79
2023-03-10T07:03:53.236Z,12.49
2023-03-10T07:06:24.665Z,12.74
2023-03-10T07:09:11.960Z,13.22
2023-03-10T07:11:39.599Z,13.55
2023-03-10T07:14:07.550Z,13.47
2023-03-10T07:16:34.994Z,13.58
2023-03-10T07:19:02.395Z,13.18
2023-03-10T07:21:36.224Z,13.54
2023-03-10T07:24:04.142Z,13.16
2023-03-10T07:26:32.058Z,13.11
2023-03-10T07:29:02.624Z,12.89
2023-03-10T07:31:30.934Z,13.18
2023-03-10T07:33:59.088Z,13.16
2023-03-10T07:36:30.091Z,13.33
2023-03-10T07:38:57.650Z,13.30
2023-03-10T07:41:25.260Z,12.99
2023-03-10T07:43:54.580Z,13.35
2023-03-10T07:46:22.446Z,13.27
2023-03-10T07:48:49.930Z,13.37
2023-03-10T07:51:18.039Z,13.50
2023-03-10T07:53:45.484Z,13.22
2023-03-10T07:56:14.509Z,13.32
2023-03-10T07:58:42.288Z,13.47
2023-03-10T08:01:15.313Z,13.42
2023-03-10T08:03:43.265Z,13.51
2023-03-10T08:06:20.343Z,13.33
2023-03-10T08:08:49.966Z,13.57
2023-03-10T08:11:18.007Z,13.24
2023-03-10T08:13:47.601Z,13.51
2023-03-10T08:16:17.389Z,13.37
2023-03-10T08:18:45.684Z,13.46
2023-03-10T08:21:13.232Z,14.00
2023-03-10T08:23:44.991Z,13.80
2023-03-10T08:26:17.257Z,14.00
2023-03-10T08:28:45.025Z,14.19
2023-03-10T08:31:16.222Z,14.16
2023-03-10T08:33:46.779Z,14.14
2023-03-10T08:36:18.314Z,14.17
2023-03-10T08:38:46.845Z,14.36
2023-03-10T08:41:24.232Z,15.03
2023-03-10T08:43:53.647Z,14.66
2023-03-10T08:46:23.034Z,15.04
2023-03-10T08:48:50.995Z,15.08
2023-03-10T08:51:18.734Z,15.19
2023-03-10T08:53:49.073Z,15.62
2023-03-10T08:56:18.112Z,15.35
2023-03-10T08:58:46.110Z,15.78
2023-03-10T09:01:17.675Z,15.96
2023-03-10T09:03:46.368Z,16.08
2023-03-10T09:06:14.928Z,15.42
2023-03-10T09:08:44.036Z,16.09
2023-03-10T09:11:16.891Z,16.25
2023-03-10T09:13:44.468Z,16.18
2023-03-10T09:16:13.527Z,16.52
2023-03-10T09:18:41.672Z,16.50
2023-03-10T09:21:12.039Z,16.52
2023-03-10T09:23:42.357Z,16.70
2023-03-10T09:26:10.100Z,16.75
2023-03-10T09:28:42.318Z,16.66
2023-03-10T09:31:17.430Z,16.79
2023-03-10T09:33:46.535Z,17.39
2023-03-10T09:36:17.333Z,17.63
2023-03-10T09:38:45.493Z,17.64
2023-03-10T09:41:43.640Z,17.22
2023-03-10T09:44:43.464Z,17.68
2023-03-10T09:47:20.147Z,17.79
2023-03-10T09:50:13.256Z,17.93
2023-03-10T09:52:57.735Z,18.10
2023-03-10T09:55:47.384Z,18.41
2023-03-10T09:58:36.690Z,18.61
2023-03-10T10:01:06.356Z,18.78
2023-03-10T10:03:53.096Z,18.32
2023-03-10T10:06:48.236Z,17.83
2023-03-10T10:09:42.376Z,18.44
2023-03-10T10:12:17.468Z,18.82
2023-03-10T10:14:55.270Z,18.75
2023-03-10T10:17:52.945Z,18.86
2023-03-10T10:20:33.628Z,18.77
2023-03-10T10:23:01.578Z,19.53
2023-03-10T10:25:32.892Z,19.54
2023-03-10T10:28:02.436Z,19.16
2023-03-10T10:30:39.661Z,19.02
2023-03-10T10:33:14.780Z,19.32
2023-03-10T10:36:00.768Z,19.93
2023-03-10T10:38:31.397Z,19.66
2023-03-10T10:41:07.202Z,19.81
2023-03-10T10:43:45.484Z,19.49
2023-03-10T10:46:15.713Z,19.96
2023-03-10T10:48:46.332Z,19.57
2023-03-10T10:51:29.584Z,20.34
2023-03-10T10:54:04.523Z,20.24
2023-03-10T10:56:32.507Z,20.29
2023-03-10T10:59:18.630Z,20.75
2023-03-10T11:01:56.265Z,20.83
2023-03-10T11:04:26.677Z,20.81
2023-03-10T11:07:11.687Z,20.06
2023-03-10T11:09:41.724Z,20.56
2023-03-10T11:12:31.394Z,20.66
2023-03-10T11:15:36.827Z,20.73
2023-03-10T11:18:22.847Z,20.80
2023-03-10T11:21:09.205Z,21.42
2023-03-10T11:24:00.218Z,21.22
2023-03-10T11:26:46.245Z,20.96
2023-03-10T11:29:28.783Z,20.33
2023-03-10T11:32:19.347Z,20.11
2023-03-10T11:34:51.936Z,19.82
2023-03-10T11:38:02.614Z,19.73
2023-03-10T11:40:48.833Z,19.29
2023-03-10T11:43:23.457Z,19.49
2023-03-10T11:45:54.405Z,19.67
2023-03-10T11:48:46.813Z,19.74
2023-03-10T11:51:24.698Z,20.16
2023-03-10T11:53:58.880Z,20.26
2023-03-10T11:56:27.708Z,19.60
2023-03-10T11:59:05.871Z,19.95
2023-03-10T12:01:53.885Z,20.30
2023-03-10T12:04:56.772Z,20.21
2023-03-10T12:07:40.259Z,20.16
2023-03-10T12:10:11.698Z,20.27
2023-03-10T12:12:42.972Z,20.42
2023-03-10T12:15:22.497Z,20.83
2023-03-10T12:17:55.144Z,20.27
2023-03-10T12:20:24.820Z,20.58
2023-03-10T12:23:11.403Z,20.79
2023-03-10T12:25:39.256Z,20.36
2023-03-10T12:28:29.239Z,20.01
2023-03-10T12:31:10.568Z,19.97
2023-03-10T12:33:49.800Z,20.18
2023-03-10T12:36:37.510Z,20.30
2023-03-10T12:39:38.063Z,20.20
2023-03-10T12:42:27.260Z,20.07
2023-03-10T12:45:21.462Z,20.66
2023-03-10T12:48:17.910Z,20.57
2023-03-10T12:51:00.724Z,19.81
2023-03-10T12:53:55.073Z,20.31
2023-03-10T12:56:38.725Z,20.63
2023-03-10T12:59:17.124Z,21.31
2023-03-10T13:01:55.524Z,21.48
2023-03-10T13:04:32.196Z,22.05
2023-03-10T13:07:04.189Z,21.65
2023-03-10T13:09:43.763Z,21.85
2023-03-10T13:12:26.504Z,22.30
2023-03-10T13:14:58.273Z,22.05
2023-03-10T13:17:31.029Z,22.39
2023-03-10T13:20:01.884Z,22.84
2023-03-10T13:22:29.862Z,22.70
2023-03-10T13:25:03.060Z,22.51
2023-03-10T13:27:33.612Z,22.90
2023-03-10T13:30:15.233Z,22.78
2023-03-10T13:32:59.417Z,22.43
2023-03-10T13:35:38.484Z,22.56
2023-03-10T13:38:11.751Z,22.84
2023-03-10T13:40:58.120Z,22.71
2023-03-10T13:43:36.564Z,23.06
2023-03-10T13:46:10.599Z,22.56
2023-03-10T13:48:42.606Z,22.73
2023-03-10T13:51:18.237Z,22.30
2023-03-10T13:53:48.077Z,22.73
2023-03-10T13:56:23.660Z,22.93
2023-03-10T13:58:54.517Z,22.48
2023-03-10T14:01:28.078Z,22.57
2023-03-10T14:03:59.159Z,22.86
2023-03-10T14:06:29.658Z,22.90
2023-03-10T14:09:13.205Z,23.40
2023-03-10T14:11:42.853Z,22.51
2023-03-10T14:14:11.949Z,22.60
2023-03-10T14:16:45.656Z,22.16
2023-03-10T14:19:34.720Z,21.76
2023-03-10T14:22:02.554Z,21.27
2023-03-10T14:24:30.170Z,21.56
2023-03-10T14:27:01.180Z,21.52
2023-03-10T14:29:30.863Z,21.35
2023-03-10T14:31:59.970Z,21.06
2023-03-10T14:34:27.553Z,20.82
2023-03-10T14:36:55.188Z,20.89
2023-03-10T14:39:24.242Z,21.21
2023-03-10T14:41:51.727Z,19.97
2023-03-10T14:44:20.497Z,19.94
2023-03-10T14:46:53.128Z,19.61
2023-03-10T14:49:24.181Z,19.02
2023-03-10T14:51:51.687Z,19.04
2023-03-10T14:54:24.681Z,19.30
2023-03-10T14:56:59.305Z,18.55
2023-03-10T14:59:28.376Z,18.30
2023-03-10T15:02:02.257Z,18.11
2023-03-10T15:04:29.879Z,17.51
2023-03-10T15:06:57.225Z,17.29
2023-03-10T15:09:24.604Z,17.25
2023-03-10T15:11:54.726Z,17.00
2023-03-10T15:14:22.137Z,16.67
2023-03-10T15:16:49.716Z,16.51
2023-03-10T15:19:28.241Z,16.14
2023-03-10T15:21:55.726Z,16.15
2023-03-10T15:24:23.433Z,16.21
2023-03-10T15:26:51.179Z,16.11
2023-03-10T15:29:23.598Z,15.67
2023-03-10T15:31:51.264Z,15.64
2023-03-10T15:34:20.649Z,15.44
2023-03-10T15:36:51.478Z,15.20
2023-03-10T15:39:31.101Z,15.16
2023-03-10T15:42:00.390Z,14.98
2023-03-10T15:44:27.781Z,15.02
2023-03-10T15:46:55.965Z,14.84
2023-03-10T15:49:23.584Z,14.77
2023-03-10T15:51:50.956Z,14.60
2023-03-10T15:54:18.427Z,14.43
2023-03-10T15:56:45.849Z,14.13
2023-03-10T15:59:13.750Z,14.15
2023-03-10T16:01:42.967Z,14.29
2023-03-10T16:04:10.578Z,14.05
2023-03-10T16:06:37.958Z,13.83
2023-03-10T16:09:07.865Z,13.83
2023-03-10T16:11:37.750Z,13.66
2023-03-10T16:14:05.341Z,13.25
2023-03-10T16:16:33.070Z,13.01
2023-03-10T16:19:00.540Z,13.29
2023-03-10T16:21:28.119Z,12.92
2023-03-10T16:23:55.885Z,12.83
2023-03-10T16:26:24.395Z,12.90
2023-03-10T16:28:54.441Z,12.56
2023-03-10T16:31:26.472Z,12.84
2023-03-10T16:33:55.860Z,12.59
2023-03-10T16:36:26.957Z,12.52
2023-03-10T16:38:55.207Z,11.75
2023-03-10T16:41:24.073Z,11.96
2023-03-10T16:43:52.145Z,11.92
2023-03-10T16:46:25.510Z,11.96
2023-03-10T16:48:57.039Z,11.91
2023-03-10T16:51:38.137Z,11.88
2023-03-10T16:54:12.402Z,11.77
2023-03-10T16:56:42.801Z,11.61
2023-03-10T16:59:18.393Z,11.56
2023-03-10T17:01:47.133Z,11.63
2023-03-10T17:04:14.840Z,11.33
2023-03-10T17:06:44.160Z,11.30
2023-03-10T17:09:13.577Z,10.97
2023-03-10T17:11:46.738Z,10.92
2023-03-10T17:14:17.327Z,10.86
2023-03-10T17:16:46.571Z,10.90
2023-03-10T17:19:17.930Z,11.02
2023-03-10T17:21:51.515Z,10.99
2023-03-10T17:24:20.441Z,10.91
2023-03-10T17:26:48.297Z,10.89
2023-03-10T17:29:17.265Z,10.70
2023-03-10T17:31:48.937Z,10.72
2023-03-10T17:34:17.604Z,10.71
2023-03-10T17:36:45.197Z,10.59
2023-03-10T17:39:19.064Z,10.69
2023-03-10T17:41:48.221Z,10.57
2023-03-10T17:44:19.181Z,10.67
2023-03-10T17:46:52.611Z,10.48
2023-03-10T17:49:20.032Z,10.55
2023-03-10T17:51:47.742Z,10.39
2023-03-10T17:54:22.785Z,10.60
2023-03-10T17:56:50.462Z,10.47
2023-03-10T17:59:18.460Z,10.41
2023-03-10T18:01:46.814Z,10.28
2023-03-10T18:04:14.375Z,10.21
2023-03-10T18:06:43.546Z,10.30
2023-03-10T18:09:30.829Z,10.12
2023-03-10T18:12:02.340Z,10.02
2023-03-10T18:14:30.385Z,10.06
2023-03-10T18:16:57.975Z,10.02
2023-03-10T18:19:31.759Z,10.21
2023-03-10T18:21:59.935Z,10.19
2023-03-10T18:24:27.423Z,9.96
2023-03-10T18:26:56.219Z,9.93
2023-03-10T18:29:23.945Z,9.86
2023-03-10T18:31:57.205Z,9.93
2023-03-10T18:34:32.678Z,10.04
2023-03-10T18:37:00.239Z,9.86
2023-03-10T18:39:27.927Z,9.85
2023-03-10T18:41:55.680Z,9.84
2023-03-10T18:44:24.130Z,9.65
2023-03-10T18:46:51.939Z,9.71
2023-03-10T18:49:19.622Z,9.85
2023-03-10T18:51:47.738Z,9.79
2023-03-10T18:54:15.159Z,9.68
2023-03-10T18:56:43.281Z,9.46
2023-03-10T18:59:11.274Z,9.41
2023-03-10T19:01:38.699Z,9.39
2023-03-10T19:04:06.404Z,9.49
2023-03-10T19:06:34.734Z,9.59
2023-03-10T19:09:08.733Z,9.55
2023-03-10T19:11:38.299Z,9.57
2023-03-10T19:14:07.043Z,9.35
2023-03-10T19:16:39.950Z,9.38
2023-03-10T19:19:12.032Z,9.49
2023-03-10T19:21:40.076Z,9.47
2023-03-10T19:24:07.924Z,9.37
2023-03-10T19:26:36.327Z,9.23
2023-03-10T19:29:04.705Z,9.14
2023-03-10T19:31:34.251Z,9.24
2023-03-10T19:34:01.950Z,9.19
2023-03-10T19:36:29.989Z,9.13
2023-03-10T19:38:59.370Z,9.01
2023-03-10T19:41:27.113Z,8.95
2023-03-10T19:43:58.262Z,8.93
2023-03-10T19:46:25.873Z,8.85
2023-03-10T19:48:53.496Z,8.76
2023-03-10T19:51:25.066Z,8.76
2023-03-10T19:53:54.002Z,8.84
2023-03-10T19:56:22.099Z,8.91
2023-03-10T19:58:50.652Z,8.91
2023-03-10T20:01:26.299Z,8.78
2023-03-10T20:03:59.522Z,8.48
2023-03-10T20:06:27.798Z,8.39
2023-03-10T20:08:57.544Z,8.42
2023-03-10T20:11:26.314Z,8.43
2023-03-10T20:13:54.496Z,8.27
2023-03-10T20:16:24.405Z,8.24
2023-03-10T20:18:52.128Z,8.27
2023-03-10T20:21:19.608Z,8.16
2023-03-10T20:23:48.733Z,8.01
2023-03-10T20:26:16.938Z,8.03
2023-03-10T20:28:45.331Z,7.79
2023-03-10T20:31:22.286Z,7.94
2023-03-10T20:33:50.684Z,7.77
2023-03-10T20:36:19.603Z,7.83
2023-03-10T20:38:48.574Z,7.83
2023-03-10T20:41:19.406Z,7.80
2023-03-10T20:43:47.385Z,7.68
2023-03-10T20:46:17.683Z,7.75
2023-03-10T20:48:47.769Z,7.80
2023-03-10T20:51:15.645Z,7.69
2023-03-10T20:53:44.151Z,7.74
2023-03-10T20:56:12.349Z,7.69
2023-03-10T20:58:39.796Z,7.87
2023-03-10T21:01:15.562Z,7.93
2023-03-10T21:03:43.260Z,7.70
2023-03-10T21:06:15.674Z,7.59
2023-03-10T21:08:48.591Z,7.46
2023-03-10T21:11:19.117Z,7.28
2023-03-10T21:13:47.666Z,7.26
2023-03-10T21:16:15.482Z,7.33
2023-03-10T21:18:43.111Z,7.41
2023-03-10T21:21:13.740Z,7.45
2023-03-10T21:23:42.066Z,7.50
2023-03-10T21:26:15.097Z,7.42
2023-03-10T21:28:43.132Z,7.47
2023-03-10T21:31:11.286Z,7.42
2023-03-10T21:33:41.893Z,7.48
2023-03-10T21:36:17.538Z,7.62
2023-03-10T21:38:47.002Z,7.51
2023-03-10T21:41:17.129Z,7.43
2023-03-10T21:43:45.922Z,7.40
2023-03-10T21:46:14.165Z,7.39
2023-03-10T21:48:42.014Z,7.40
2023-03-10T21:51:13.240Z,7.39
2023-03-10T21:53:41.595Z,7.46
2023-03-10T21:56:09.692Z,7.44
2023-03-10T21:58:38.471Z,7.27
2023-03-10T22:01:12.607Z,7.19
2023-03-10T22:03:41.522Z,7.15
2023-03-10T22:06:09.395Z,7.04
2023-03-10T22:08:39.135Z,7.01
2023-03-10T22:11:08.044Z,7.02
2023-03-10T22:13:37.545Z,6.94
2023-03-10T22:16:08.236Z,6.90
2023-03-10T22:18:39.058Z,7.06
2023-03-10T22:21:06.555Z,7.01
2023-03-10T22:23:33.919Z,6.86
2023-03-10T22:26:01.515Z,6.79
2023-03-10T22:28:29.348Z,6.78
2023-03-10T22:31:01.897Z,6.80
2023-03-10T22:33:29.964Z,6.38
2023-03-10T22:36:02.686Z,6.40
2023-03-10T22:38:30.822Z,6.29
2023-03-10T22:40:58.408Z,6.29
2023-03-10T22:43:28.052Z,6.39
2023-03-10T22:45:59.939Z,6.11
2023-03-10T22:48:30.076Z,6.11
2023-03-10T22:50:58.383Z,6.14
2023-03-10T22:53:25.742Z,6.10
2023-03-10T22:55:53.350Z,6.22
2023-03-10T22:58:20.724Z,6.12
2023-03-10T23:00:48.853Z,6.08
2023-03-10T23:03:16.893Z,5.97
2023-03-10T23:05:45.346Z,5.96
2023-03-10T23:08:14.267Z,5.89
2023-03-10T23:10:42.040Z,5.86
2023-03-10T23:13:14.187Z,5.81
2023-03-10T23:15:43.011Z,5.85
2023-03-10T23:18:12.743Z,5.87
2023-03-10T23:20:44.947Z,5.77
2023-03-10T23:23:16.564Z,5.71
2023-03-10T23:25:50.970Z,5.72
2023-03-10T23:28:20.981Z,5.63
2023-03-10T23:30:49.532Z,5.60
2023-03-10T23:33:21.649Z,5.52
2023-03-10T23:35:53.937Z,5.59
2023-03-10T23:38:23.597Z,5.64
2023-03-10T23:40:51.980Z,5.78
2023-03-10T23:43:20.258Z,5.79
2023-03-10T23:45:53.329Z,5.58
2023-03-10T23:48:21.236Z,5.48
2023-03-10T23:50:48.802Z,5.53
2023-03-10T23:53:20.688Z,5.59
2023-03-10T23:55:48.606Z,5.48
2023-03-10T23:58:18.251Z,5.46
